Time;durP1;ratioP1;P1;durP2;ratioP2;P2;SDS_P1;SDS_P2;PMS_P1;PMS_P2;Temp;Humidity;BMP_temperature;BMP_pressure;BME280_temperature;BME280_humidity;BME280_pressure;Samples;Min_cycle;Max_cycle;Signal;HPM_P1;HPM_P2
2022/08/14 00:00:20;;;;;;;;;;;24.80;49.60;;;;;;5051857;28;19927;-61
2022/08/14 00:02:47;;;;;;;;;;;24.80;49.70;;;;;;5052613;28;19989;-61
2022/08/14 00:05:15;;;;;;;;;;;24.80;49.60;;;;;;5082823;28;19920;-61
2022/08/14 00:07:42;;;;;;;;;;;24.80;49.60;;;;;;5049918;28;19932;-61
2022/08/14 00:10:09;;;;;;;;;;;24.80;49.60;;;;;;5040662;28;19974;-61
2022/08/14 00:12:37;;;;;;;;;;;24.90;49.80;;;;;;5064795;28;19920;-61
2022/08/14 00:15:06;;;;;;;;;;;24.90;49.80;;;;;;5052741;28;20308;-61
2022/08/14 00:17:32;;;;;;;;;;;24.90;49.80;;;;;;5050847;28;19924;-61
2022/08/14 00:20:01;;;;;;;;;;;24.80;49.70;;;;;;5044617;28;19920;-61
2022/08/14 00:22:28;;;;;;;;;;;24.80;49.70;;;;;;5051230;28;19942;-61
2022/08/14 00:24:55;;;;;;;;;;;24.80;49.70;;;;;;5049921;28;19928;-61
2022/08/14 00:27:21;;;;;;;;;;;24.80;49.70;;;;;;5034012;28;19920;-61
2022/08/14 00:29:48;;;;;;;;;;;24.80;49.70;;;;;;5072222;28;19983;-61
2022/08/14 00:32:16;;;;;;;;;;;24.80;49.70;;;;;;5050430;28;19925;-61
2022/08/14 00:34:44;;;;;;;;;;;24.90;49.80;;;;;;5084182;28;19922;-61
2022/08/14 00:37:10;;;;;;;;;;;24.90;49.80;;;;;;5049991;28;19995;-61
2022/08/14 00:39:37;;;;;;;;;;;24.90;50.30;;;;;;5050352;28;20005;-61
2022/08/14 00:42:04;;;;;;;;;;;24.80;49.60;;;;;;5068668;28;19932;-61
2022/08/14 00:44:31;;;;;;;;;;;24.80;49.70;;;;;;5084441;28;19932;-61
2022/08/14 00:46:58;;;;;;;;;;;24.80;49.70;;;;;;5068198;28;19925;-60
2022/08/14 00:49:27;;;;;;;;;;;24.90;49.70;;;;;;5045869;28;20023;-62
2022/08/14 00:51:56;;;;;;;;;;;24.90;49.80;;;;;;5067700;28;20019;-62
2022/08/14 00:54:22;;;;;;;;;;;24.90;49.80;;;;;;5068620;28;19924;-60
2022/08/14 00:56:50;;;;;;;;;;;24.80;49.70;;;;;;5068345;28;19924;-62
2022/08/14 00:59:17;;;;;;;;;;;24.80;49.70;;;;;;5050606;28;19968;-61
2022/08/14 01:01:43;;;;;;;;;;;24.80;49.70;;;;;;5049738;28;19940;-62
2022/08/14 01:04:10;;;;;;;;;;;24.90;49.80;;;;;;5068652;28;19925;-62
2022/08/14 01:06:39;;;;;;;;;;;24.90;49.80;;;;;;5050455;28;19966;-62
2022/08/14 01:09:05;;;;;;;;;;;24.90;50.30;;;;;;5046529;28;19924;-62
2022/08/14 01:11:32;;;;;;;;;;;24.80;49.70;;;;;;5068915;28;19932;-62
2022/08/14 01:14:01;;;;;;;;;;;24.80;49.60;;;;;;5083966;28;19977;-62
2022/08/14 01:16:29;;;;;;;;;;;24.80;49.70;;;;;;5066752;28;19920;-62
2022/08/14 01:21:42;;;;;;;;;;;24.80;49.60;;;;;;5085203;28;19920;-62
2022/08/14 01:24:09;;;;;;;;;;;24.90;49.80;;;;;;5069153;28;19927;-62
2022/08/14 01:26:36;;;;;;;;;;;24.80;49.60;;;;;;5052948;28;19974;-61
2022/08/14 01:29:03;;;;;;;;;;;24.80;49.60;;;;;;5070735;28;19924;-62
2022/08/14 01:31:30;;;;;;;;;;;24.90;49.70;;;;;;5070904;28;19924;-62
2022/08/14 01:33:57;;;;;;;;;;;24.90;49.80;;;;;;5053474;28;19926;-62
2022/08/14 01:36:24;;;;;;;;;;;24.80;49.60;;;;;;5051612;28;20042;-62
2022/08/14 01:38:54;;;;;;;;;;;24.80;49.70;;;;;;5071637;28;20400;-62
2022/08/14 01:41:25;;;;;;;;;;;24.90;49.70;;;;;;5052956;28;20375;-62
2022/08/14 01:43:52;;;;;;;;;;;24.80;49.60;;;;;;5053742;28;19920;-62
2022/08/14 01:46:21;;;;;;;;;;;24.80;49.60;;;;;;5073515;28;19996;-62
2022/08/14 01:48:48;;;;;;;;;;;24.90;49.80;;;;;;5053610;28;19927;-62
2022/08/14 01:51:15;;;;;;;;;;;24.90;49.80;;;;;;5053457;28;19998;-62
2022/08/14 01:53:43;;;;;;;;;;;24.90;49.80;;;;;;5070980;28;19994;-62
2022/08/14 01:56:12;;;;;;;;;;;24.80;49.70;;;;;;5052411;28;19925;-62
2022/08/14 01:58:40;;;;;;;;;;;24.90;49.80;;;;;;5053465;28;19920;-62
2022/08/14 02:01:07;;;;;;;;;;;24.80;49.60;;;;;;5052058;28;19932;-62
2022/08/14 02:03:39;;;;;;;;;;;24.80;49.70;;;;;;5053074;28;19931;-61
2022/08/14 02:06:06;;;;;;;;;;;24.80;49.70;;;;;;5053216;28;20014;-61
2022/08/14 02:08:36;;;;;;;;;;;24.90;49.80;;;;;;5064882;28;19937;-61
2022/08/14 02:11:22;;;;;;;;;;;24.80;49.70;;;;;;5066379;28;19978;-61
2022/08/14 02:13:51;;;;;;;;;;;24.90;49.80;;;;;;5054538;28;19960;-61
2022/08/14 02:16:18;;;;;;;;;;;24.80;49.60;;;;;;5052605;28;19920;-61
2022/08/14 02:18:48;;;;;;;;;;;24.80;49.70;;;;;;5051854;28;20007;-61
2022/08/14 02:21:17;;;;;;;;;;;24.90;49.70;;;;;;5053293;28;19927;-61
2022/08/14 02:23:45;;;;;;;;;;;24.80;49.70;;;;;;5050090;28;19982;-61
2022/08/14 02:26:15;;;;;;;;;;;24.80;49.60;;;;;;5069078;28;19927;-61
2022/08/14 02:28:43;;;;;;;;;;;24.80;49.70;;;;;;5056733;28;19924;-61
2022/08/14 02:31:14;;;;;;;;;;;24.80;49.70;;;;;;5042118;28;22069;-62
2022/08/14 02:33:41;;;;;;;;;;;24.80;49.70;;;;;;5049710;28;19921;-62
2022/08/14 02:36:08;;;;;;;;;;;24.80;49.60;;;;;;5051180;28;19920;-62
2022/08/14 02:38:35;;;;;;;;;;;24.80;49.70;;;;;;5062595;28;19925;-61
2022/08/14 02:41:02;;;;;;;;;;;24.80;49.70;;;;;;5068346;28;19920;-62
2022/08/14 02:43:32;;;;;;;;;;;24.80;49.70;;;;;;5049197;28;20045;-62
2022/08/14 02:45:59;;;;;;;;;;;24.80;49.70;;;;;;5050081;28;19921;-62
2022/08/14 02:48:30;;;;;;;;;;;24.80;49.70;;;;;;5043565;28;19978;-61
2022/08/14 02:50:57;;;;;;;;;;;24.80;49.70;;;;;;5068720;28;19966;-62
2022/08/14 02:53:24;;;;;;;;;;;24.80;49.70;;;;;;5058380;28;19928;-62
2022/08/14 02:55:50;;;;;;;;;;;24.80;49.70;;;;;;5052356;28;19974;-62
2022/08/14 02:58:17;;;;;;;;;;;24.80;49.70;;;;;;5052565;28;20377;-62
2022/08/14 03:00:44;;;;;;;;;;;24.80;49.70;;;;;;5051956;28;19920;-62
2022/08/14 03:03:11;;;;;;;;;;;24.80;49.70;;;;;;5050225;28;19921;-63
2022/08/14 03:05:39;;;;;;;;;;;24.80;49.70;;;;;;5050040;28;20381;-61
2022/08/14 03:08:06;;;;;;;;;;;24.90;49.80;;;;;;5049464;28;20028;-61
2022/08/14 03:10:33;;;;;;;;;;;24.80;49.70;;;;;;5049076;28;19968;-62
2022/08/14 03:13:03;;;;;;;;;;;24.80;49.80;;;;;;5051704;28;19950;-61
2022/08/14 03:15:31;;;;;;;;;;;24.90;49.90;;;;;;5038222;28;20320;-61
2022/08/14 03:17:58;;;;;;;;;;;24.80;49.70;;;;;;5067350;28;20285;-61
2022/08/14 03:20:26;;;;;;;;;;;24.90;49.90;;;;;;5050973;28;19925;-62
2022/08/14 03:22:54;;;;;;;;;;;24.80;49.80;;;;;;5046553;28;19926;-62
2022/08/14 03:25:21;;;;;;;;;;;24.80;49.80;;;;;;5084466;28;19943;-62
2022/08/14 03:27:49;;;;;;;;;;;24.80;49.80;;;;;;5052012;28;19974;-61
2022/08/14 03:30:16;;;;;;;;;;;24.80;49.80;;;;;;5059769;28;19924;-61
2022/08/14 03:32:43;;;;;;;;;;;24.80;49.80;;;;;;5068623;28;20011;-61
2022/08/14 03:35:10;;;;;;;;;;;24.80;49.80;;;;;;5052217;28;19951;-62
2022/08/14 03:37:37;;;;;;;;;;;24.90;49.90;;;;;;5068795;28;19974;-61
2022/08/14 03:40:07;;;;;;;;;;;24.80;49.80;;;;;;5069340;28;19931;-62
2022/08/14 03:42:34;;;;;;;;;;;24.80;49.80;;;;;;5050593;28;20434;-62
2022/08/14 03:45:00;;;;;;;;;;;24.90;49.90;;;;;;5051636;28;19936;-62
2022/08/14 03:47:28;;;;;;;;;;;24.90;49.90;;;;;;5051404;28;19921;-62
2022/08/14 03:49:55;;;;;;;;;;;24.80;49.90;;;;;;5051772;28;19924;-61
2022/08/14 03:52:25;;;;;;;;;;;24.90;49.90;;;;;;5051475;28;19921;-62
2022/08/14 03:54:51;;;;;;;;;;;24.80;49.80;;;;;;5050992;28;19924;-61
2022/08/14 03:57:19;;;;;;;;;;;24.90;49.90;;;;;;5050920;28;19933;-62
2022/08/14 03:59:46;;;;;;;;;;;24.80;49.80;;;;;;5062239;28;19935;-62
2022/08/14 04:02:13;;;;;;;;;;;24.80;49.80;;;;;;5069344;28;20015;-62
2022/08/14 04:04:44;;;;;;;;;;;24.80;49.80;;;;;;5050960;28;19968;-61
2022/08/14 04:07:11;;;;;;;;;;;24.80;49.80;;;;;;5051025;28;19920;-62
2022/08/14 04:09:38;;;;;;;;;;;24.80;49.80;;;;;;5067058;28;19921;-62
2022/08/14 04:12:05;;;;;;;;;;;24.90;50.00;;;;;;5069520;28;19924;-62
2022/08/14 04:14:34;;;;;;;;;;;24.90;50.00;;;;;;5050489;28;19995;-61
2022/08/14 04:17:00;;;;;;;;;;;24.90;49.90;;;;;;5049195;28;20392;-61
2022/08/14 04:19:28;;;;;;;;;;;24.90;50.00;;;;;;5048725;28;19925;-61
2022/08/14 04:21:54;;;;;;;;;;;24.80;49.90;;;;;;5050595;28;19921;-62
2022/08/14 04:24:21;;;;;;;;;;;24.80;49.90;;;;;;5049578;28;19956;-62
2022/08/14 04:26:49;;;;;;;;;;;24.80;49.80;;;;;;5050776;28;20269;-61
2022/08/14 04:29:15;;;;;;;;;;;24.80;49.90;;;;;;5050700;28;19920;-62
2022/08/14 04:31:43;;;;;;;;;;;24.80;49.90;;;;;;5050128;28;20063;-62
2022/08/14 04:34:10;;;;;;;;;;;24.80;49.90;;;;;;5051393;28;20023;-62
2022/08/14 04:43:34;;;;;;;;;;;24.90;50.00;;;;;;5079143;28;19939;-62
2022/08/14 04:44:53;;;;;;;;;;;24.80;49.90;;;;;;5067339;28;19941;-61
2022/08/14 04:50:06;;;;;;;;;;;24.90;50.00;;;;;;5070021;28;19962;-61
2022/08/14 04:52:32;;;;;;;;;;;24.90;50.00;;;;;;5068698;28;20329;-62
2022/08/14 04:55:00;;;;;;;;;;;24.80;49.90;;;;;;5052376;28;19967;-61
2022/08/14 04:57:26;;;;;;;;;;;24.80;50.00;;;;;;5053541;28;19932;-60
2022/08/14 04:59:53;;;;;;;;;;;24.80;50.00;;;;;;5054887;28;19924;-61
2022/08/14 05:02:24;;;;;;;;;;;24.90;50.10;;;;;;5068721;28;20018;-61
2022/08/14 05:04:51;;;;;;;;;;;24.80;50.00;;;;;;5053256;28;19986;-61
2022/08/14 05:07:18;;;;;;;;;;;24.90;50.10;;;;;;5071145;28;19932;-60
2022/08/14 05:09:44;;;;;;;;;;;24.90;50.10;;;;;;5086913;28;19932;-61
2022/08/14 05:12:11;;;;;;;;;;;24.90;50.10;;;;;;5053170;28;19960;-62
2022/08/14 05:14:38;;;;;;;;;;;24.80;50.00;;;;;;5087209;28;19924;-61
2022/08/14 05:17:05;;;;;;;;;;;24.90;50.10;;;;;;5054416;28;19932;-61
2022/08/14 05:19:33;;;;;;;;;;;24.80;50.00;;;;;;5053869;28;19967;-61
2022/08/14 05:22:00;;;;;;;;;;;24.90;50.10;;;;;;5053723;28;19956;-61
2022/08/14 05:24:27;;;;;;;;;;;24.90;50.10;;;;;;5053281;28;19928;-61
2022/08/14 05:26:54;;;;;;;;;;;24.90;50.10;;;;;;5053890;28;19927;-61
2022/08/14 05:29:21;;;;;;;;;;;24.80;50.00;;;;;;5052731;28;20374;-61
2022/08/14 05:31:48;;;;;;;;;;;24.80;50.10;;;;;;5070486;28;19932;-61
2022/08/14 05:34:15;;;;;;;;;;;24.80;50.10;;;;;;5037423;28;19963;-61
2022/08/14 05:36:43;;;;;;;;;;;24.90;50.20;;;;;;5075629;28;19932;-61
2022/08/14 05:39:10;;;;;;;;;;;24.90;50.20;;;;;;5050629;28;19994;-61
2022/08/14 05:41:36;;;;;;;;;;;24.90;50.20;;;;;;5053015;28;19934;-60
2022/08/14 05:44:03;;;;;;;;;;;24.90;50.20;;;;;;5051713;28;19921;-61
2022/08/14 05:46:30;;;;;;;;;;;24.90;50.20;;;;;;5054219;28;20046;-61
2022/08/14 05:48:57;;;;;;;;;;;24.90;50.20;;;;;;5065791;28;19924;-61
2022/08/14 05:51:24;;;;;;;;;;;24.90;50.30;;;;;;5053589;28;20404;-61
2022/08/14 05:53:52;;;;;;;;;;;24.90;50.30;;;;;;5053667;28;19927;-61
2022/08/14 05:56:20;;;;;;;;;;;24.90;50.30;;;;;;5086900;28;19927;-61
2022/08/14 05:58:46;;;;;;;;;;;24.90;50.30;;;;;;5071489;28;19924;-61
2022/08/14 06:01:13;;;;;;;;;;;24.90;50.30;;;;;;5053603;28;19982;-61
2022/08/14 06:03:40;;;;;;;;;;;24.90;50.30;;;;;;5053532;28;19920;-61
2022/08/14 06:06:07;;;;;;;;;;;24.90;50.30;;;;;;5070782;28;19990;-61
2022/08/14 06:08:34;;;;;;;;;;;24.90;50.30;;;;;;5079387;28;20354;-61
2022/08/14 06:11:03;;;;;;;;;;;24.90;50.30;;;;;;5052507;28;19928;-61
2022/08/14 06:13:30;;;;;;;;;;;24.90;50.30;;;;;;5050276;28;19924;-60
2022/08/14 06:15:56;;;;;;;;;;;24.90;50.30;;;;;;5050879;28;19995;-60
2022/08/14 06:18:23;;;;;;;;;;;24.90;50.30;;;;;;5049920;28;19970;-60
2022/08/14 06:20:50;;;;;;;;;;;24.90;50.30;;;;;;5068698;28;20308;-61
2022/08/14 06:23:17;;;;;;;;;;;24.90;50.30;;;;;;5051273;28;19935;-61
2022/08/14 06:25:44;;;;;;;;;;;24.90;50.30;;;;;;5045701;28;19920;-61
2022/08/14 06:28:17;;;;;;;;;;;24.90;50.30;;;;;;5050572;28;20301;-61
2022/08/14 06:30:44;;;;;;;;;;;24.90;50.30;;;;;;5046369;28;19920;-61
2022/08/14 06:33:10;;;;;;;;;;;24.90;50.30;;;;;;5050388;28;19931;-61
2022/08/14 06:35:37;;;;;;;;;;;24.90;50.30;;;;;;5049560;28;19952;-61
2022/08/14 06:38:04;;;;;;;;;;;24.90;50.40;;;;;;5042965;28;19994;-62
2022/08/14 06:40:31;;;;;;;;;;;24.90;50.40;;;;;;5052034;28;19967;-62
2022/08/14 06:42:58;;;;;;;;;;;24.90;50.40;;;;;;5046827;28;19928;-62
2022/08/14 06:45:27;;;;;;;;;;;24.90;50.40;;;;;;5054839;28;19982;-63
2022/08/14 06:47:54;;;;;;;;;;;24.90;50.40;;;;;;5068199;28;19930;-61
2022/08/14 06:50:21;;;;;;;;;;;24.90;50.40;;;;;;5050674;28;19924;-61
2022/08/14 06:52:48;;;;;;;;;;;24.90;50.40;;;;;;5050541;28;19932;-62
2022/08/14 06:55:16;;;;;;;;;;;24.90;50.40;;;;;;5050459;28;19924;-61
2022/08/14 06:57:44;;;;;;;;;;;24.90;50.40;;;;;;5052225;28;20014;-61
2022/08/14 07:00:12;;;;;;;;;;;24.90;50.40;;;;;;5052454;28;19927;-62
2022/08/14 07:08:11;;;;;;;;;;;24.90;50.40;;;;;;5066610;28;19928;-61
2022/08/14 07:10:38;;;;;;;;;;;24.90;50.40;;;;;;5065789;28;19920;-62
2022/08/14 07:13:05;;;;;;;;;;;24.90;50.40;;;;;;5049645;28;20424;-62
2022/08/14 07:15:32;;;;;;;;;;;24.90;50.40;;;;;;5036492;28;20274;-62
2022/08/14 07:18:00;;;;;;;;;;;24.90;50.50;;;;;;5062831;28;20023;-62
2022/08/14 07:20:27;;;;;;;;;;;24.90;50.50;;;;;;5066091;28;19921;-62
2022/08/14 07:22:57;;;;;;;;;;;24.90;50.50;;;;;;5049308;28;19978;-60
2022/08/14 07:25:24;;;;;;;;;;;24.90;50.50;;;;;;5048686;28;20018;-62
2022/08/14 07:27:51;;;;;;;;;;;24.90;50.50;;;;;;5052186;28;19971;-62
2022/08/14 07:30:17;;;;;;;;;;;24.90;50.50;;;;;;5051375;28;20340;-62
2022/08/14 07:32:44;;;;;;;;;;;24.90;50.50;;;;;;5050591;28;19921;-61
2022/08/14 07:35:13;;;;;;;;;;;24.90;50.50;;;;;;5068295;28;19986;-62
2022/08/14 07:37:40;;;;;;;;;;;24.90;50.50;;;;;;5042813;28;20443;-62
2022/08/14 07:40:07;;;;;;;;;;;24.90;50.50;;;;;;5051108;28;19920;-61
2022/08/14 07:42:33;;;;;;;;;;;24.90;50.60;;;;;;5082956;28;19924;-61
2022/08/14 07:45:00;;;;;;;;;;;24.90;50.60;;;;;;5051347;28;19927;-62
2022/08/14 07:47:27;;;;;;;;;;;24.90;50.60;;;;;;5050267;28;19924;-62
2022/08/14 07:49:59;;;;;;;;;;;24.90;50.60;;;;;;5068721;28;19927;-62
2022/08/14 07:52:27;;;;;;;;;;;24.90;50.60;;;;;;5051056;28;19921;-61
2022/08/14 07:54:54;;;;;;;;;;;24.90;50.60;;;;;;5050045;28;19927;-62
2022/08/14 07:57:21;;;;;;;;;;;24.90;51.20;;;;;;5058490;28;19920;-62
2022/08/14 07:59:47;;;;;;;;;;;24.90;50.60;;;;;;5051021;28;19990;-62
2022/08/14 08:02:15;;;;;;;;;;;24.90;50.70;;;;;;5054648;28;19920;-62
2022/08/14 08:04:43;;;;;;;;;;;24.90;50.70;;;;;;5042446;28;19932;-61
2022/08/14 08:07:10;;;;;;;;;;;24.90;50.70;;;;;;5046121;28;19928;-62
2022/08/14 08:09:38;;;;;;;;;;;24.90;50.70;;;;;;5066251;28;20059;-61
2022/08/14 08:12:05;;;;;;;;;;;24.90;50.70;;;;;;5065160;28;20019;-62
2022/08/14 08:14:32;;;;;;;;;;;25.00;51.10;;;;;;5046596;28;19948;-62
2022/08/14 08:16:59;;;;;;;;;;;24.90;51.70;;;;;;5061062;28;19929;-61
2022/08/14 08:19:26;;;;;;;;;;;24.90;52.00;;;;;;5062671;28;19920;-61
2022/08/14 08:21:53;;;;;;;;;;;25.00;52.10;;;;;;5047297;28;19928;-61
2022/08/14 08:24:20;;;;;;;;;;;25.00;52.10;;;;;;5048688;28;19927;-61
2022/08/14 08:26:48;;;;;;;;;;;24.90;52.60;;;;;;5060564;28;19929;-60
2022/08/14 08:29:18;;;;;;;;;;;25.00;53.00;;;;;;5085372;28;19990;-61
2022/08/14 08:31:49;;;;;;;;;;;25.00;53.30;;;;;;5070788;28;19924;-61
2022/08/14 08:34:16;;;;;;;;;;;25.00;52.90;;;;;;5051385;28;20321;-61
2022/08/14 08:36:43;;;;;;;;;;;25.00;52.90;;;;;;5053852;28;19921;-60
2022/08/14 08:39:09;;;;;;;;;;;25.00;52.70;;;;;;5047633;28;19924;-62
2022/08/14 08:41:40;;;;;;;;;;;25.00;53.10;;;;;;5073539;28;19977;-61
2022/08/14 08:44:09;;;;;;;;;;;25.00;53.20;;;;;;5072378;28;19921;-61
2022/08/14 08:46:35;;;;;;;;;;;25.00;53.20;;;;;;5050245;28;19986;-61
2022/08/14 08:49:02;;;;;;;;;;;25.00;53.10;;;;;;5059558;28;20298;-61
2022/08/14 08:51:30;;;;;;;;;;;25.00;53.10;;;;;;5059482;28;19925;-61
2022/08/14 08:53:58;;;;;;;;;;;25.00;53.40;;;;;;5072815;28;20284;-60
2022/08/14 08:56:34;;;;;;;;;;;25.10;53.40;;;;;;5054397;28;19920;-61
2022/08/14 08:59:02;;;;;;;;;;;25.10;53.20;;;;;;5078295;28;19943;-61
2022/08/14 09:01:30;;;;;;;;;;;25.00;53.60;;;;;;5080239;28;20019;-61
2022/08/14 09:04:03;;;;;;;;;;;25.00;54.00;;;;;;5050846;28;20030;-60
2022/08/14 09:06:30;;;;;;;;;;;25.10;54.00;;;;;;5049620;28;19980;-61
2022/08/14 09:08:57;;;;;;;;;;;25.10;53.90;;;;;;5053666;28;20004;-60
2022/08/14 09:11:24;;;;;;;;;;;25.10;53.70;;;;;;5051330;28;19929;-61
2022/08/14 09:13:51;;;;;;;;;;;25.10;53.40;;;;;;5068550;28;19932;-61
2022/08/14 09:16:19;;;;;;;;;;;25.10;53.30;;;;;;5048481;28;19928;-61
2022/08/14 09:18:47;;;;;;;;;;;25.10;53.20;;;;;;5064837;28;19921;-61
2022/08/14 09:21:14;;;;;;;;;;;25.10;53.10;;;;;;5065078;28;19924;-61
2022/08/14 09:23:41;;;;;;;;;;;25.10;53.00;;;;;;5081747;28;19924;-62
2022/08/14 09:26:08;;;;;;;;;;;25.10;53.00;;;;;;5062089;28;19928;-61
2022/08/14 09:28:34;;;;;;;;;;;25.10;52.90;;;;;;5049268;28;20036;-63
2022/08/14 09:31:01;;;;;;;;;;;25.10;52.90;;;;;;5052719;28;19952;-62
2022/08/14 09:33:46;;;;;;;;;;;25.10;52.80;;;;;;5048896;28;19985;-62
2022/08/14 09:36:33;;;;;;;;;;;25.10;52.80;;;;;;5069847;28;19971;-62
2022/08/14 09:39:05;;;;;;;;;;;25.10;52.70;;;;;;5062748;28;19921;-61
2022/08/14 09:41:34;;;;;;;;;;;25.10;52.70;;;;;;5039325;28;19959;-61
2022/08/14 09:44:03;;;;;;;;;;;25.10;52.70;;;;;;5051533;28;19925;-61
2022/08/14 09:46:30;;;;;;;;;;;25.10;52.60;;;;;;5047023;28;20018;-61
2022/08/14 09:49:00;;;;;;;;;;;25.10;52.60;;;;;;5049096;28;19924;-61
2022/08/14 09:51:26;;;;;;;;;;;25.10;52.70;;;;;;5079328;28;19920;-61
2022/08/14 09:53:59;;;;;;;;;;;25.10;52.70;;;;;;5044046;28;19947;-61
2022/08/14 09:56:27;;;;;;;;;;;25.10;52.60;;;;;;5064586;28;19958;-62
2022/08/14 09:58:54;;;;;;;;;;;25.10;52.60;;;;;;5050530;28;19947;-62
2022/08/14 10:01:22;;;;;;;;;;;25.10;52.50;;;;;;5081308;28;20485;-61
2022/08/14 10:03:50;;;;;;;;;;;25.10;52.50;;;;;;5049646;28;19928;-62
2022/08/14 10:06:17;;;;;;;;;;;25.10;52.70;;;;;;5052163;28;19925;-62
2022/08/14 10:08:45;;;;;;;;;;;25.10;52.50;;;;;;5044985;28;19921;-62
2022/08/14 10:11:16;;;;;;;;;;;25.10;52.50;;;;;;5049700;28;19921;-62
2022/08/14 10:13:45;;;;;;;;;;;25.10;52.50;;;;;;5049055;28;20019;-61
2022/08/14 10:16:13;;;;;;;;;;;25.10;52.40;;;;;;5046710;28;19935;-63
2022/08/14 10:18:39;;;;;;;;;;;25.10;52.40;;;;;;5066719;28;19929;-63
2022/08/14 10:21:08;;;;;;;;;;;25.10;52.40;;;;;;5038682;28;19929;-61
2022/08/14 10:23:39;;;;;;;;;;;25.10;52.40;;;;;;5048173;28;19967;-61
2022/08/14 10:26:06;;;;;;;;;;;25.10;52.40;;;;;;5049540;28;19924;-62
2022/08/14 10:28:38;;;;;;;;;;;25.10;52.40;;;;;;5049929;28;20003;-61
2022/08/14 10:31:15;;;;;;;;;;;25.10;52.40;;;;;;5050450;28;19928;-61
2022/08/14 10:33:42;;;;;;;;;;;25.20;52.50;;;;;;5067751;28;20011;-62
2022/08/14 10:36:09;;;;;;;;;;;25.10;52.40;;;;;;5040571;28;19965;-61
2022/08/14 10:38:36;;;;;;;;;;;25.10;52.40;;;;;;5066204;28;19920;-61
2022/08/14 10:41:12;;;;;;;;;;;25.10;52.40;;;;;;5072746;28;19927;-61
2022/08/14 10:43:39;;;;;;;;;;;25.10;52.40;;;;;;5046500;28;19921;-61
2022/08/14 10:46:12;;;;;;;;;;;25.10;52.40;;;;;;5044933;28;20392;-61
2022/08/14 10:48:38;;;;;;;;;;;25.10;52.40;;;;;;5041740;28;19960;-62
2022/08/14 10:51:05;;;;;;;;;;;25.20;52.50;;;;;;5073051;28;19928;-62
2022/08/14 10:53:35;;;;;;;;;;;25.20;52.40;;;;;;5080137;28;19921;-62
2022/08/14 10:56:05;;;;;;;;;;;25.20;52.40;;;;;;5049065;28;19946;-62
2022/08/14 10:58:32;;;;;;;;;;;25.10;52.30;;;;;;5067458;28;19920;-61
2022/08/14 11:01:04;;;;;;;;;;;25.20;52.40;;;;;;5043590;28;19967;-61
2022/08/14 11:03:39;;;;;;;;;;;25.20;52.40;;;;;;5059412;23;20023;-68
2022/08/14 11:06:13;;;;;;;;;;;25.20;52.40;;;;;;5065629;28;19984;-68
2022/08/14 11:08:39;;;;;;;;;;;25.20;52.40;;;;;;5049198;28;19932;-69
2022/08/14 11:11:06;;;;;;;;;;;25.20;52.40;;;;;;5053860;28;19924;-67
2022/08/14 11:13:34;;;;;;;;;;;25.20;52.40;;;;;;5053576;28;19931;-67
2022/08/14 11:16:01;;;;;;;;;;;25.20;52.40;;;;;;5055373;28;19974;-68
2022/08/14 11:18:28;;;;;;;;;;;25.20;52.40;;;;;;5069347;28;19920;-66
2022/08/14 11:20:58;;;;;;;;;;;25.20;52.40;;;;;;5053024;28;19920;-67
2022/08/14 11:23:27;;;;;;;;;;;25.20;52.40;;;;;;5049584;28;19933;-65
2022/08/14 11:25:54;;;;;;;;;;;25.20;52.40;;;;;;5050937;28;19920;-68
2022/08/14 11:28:22;;;;;;;;;;;25.20;52.40;;;;;;5052133;28;20046;-67
2022/08/14 11:30:49;;;;;;;;;;;25.20;52.40;;;;;;5053584;28;19925;-68
2022/08/14 11:33:16;;;;;;;;;;;25.20;52.40;;;;;;5053069;28;19920;-69
2022/08/14 11:35:47;;;;;;;;;;;25.20;52.60;;;;;;5049816;28;19943;-68
2022/08/14 11:38:16;;;;;;;;;;;25.20;52.50;;;;;;5059632;28;19920;-69
2022/08/14 11:40:44;;;;;;;;;;;25.20;52.50;;;;;;5055432;28;19921;-70
2022/08/14 11:43:11;;;;;;;;;;;25.20;52.50;;;;;;5059445;28;19920;-70
2022/08/14 11:45:38;;;;;;;;;;;25.20;52.60;;;;;;5061009;28;19921;-70
2022/08/14 11:48:14;;;;;;;;;;;25.20;52.50;;;;;;5066578;28;19924;-71
2022/08/14 11:50:40;;;;;;;;;;;25.20;52.60;;;;;;5068468;28;19959;-73
2022/08/14 11:53:07;;;;;;;;;;;25.20;52.60;;;;;;5067134;28;20245;-72
2022/08/14 11:55:36;;;;;;;;;;;25.20;52.60;;;;;;5067888;28;19921;-69
2022/08/14 11:58:03;;;;;;;;;;;25.30;52.70;;;;;;5066754;28;19927;-73
2022/08/14 12:00:31;;;;;;;;;;;25.30;52.80;;;;;;5073738;28;19948;-72
2022/08/14 12:02:58;;;;;;;;;;;25.30;52.80;;;;;;5071554;28;19967;-72
2022/08/14 12:05:29;;;;;;;;;;;25.30;52.70;;;;;;5065889;28;19920;-71
2022/08/14 12:07:55;;;;;;;;;;;25.30;52.80;;;;;;5083267;28;19943;-72
2022/08/14 12:10:22;;;;;;;;;;;25.30;52.80;;;;;;5079704;28;19943;-71
2022/08/14 12:12:51;;;;;;;;;;;25.30;53.10;;;;;;5065819;28;19920;-72
2022/08/14 12:15:27;;;;;;;;;;;25.30;52.90;;;;;;5085190;28;19955;-73
2022/08/14 12:17:54;;;;;;;;;;;25.30;52.90;;;;;;5081517;28;19920;-71
2022/08/14 12:20:28;;;;;;;;;;;25.30;53.00;;;;;;5059753;28;19924;-70
2022/08/14 12:22:54;;;;;;;;;;;25.30;53.00;;;;;;5078060;28;19924;-71
2022/08/14 12:25:22;;;;;;;;;;;25.30;53.20;;;;;;5078367;28;19921;-71
2022/08/14 12:27:49;;;;;;;;;;;25.30;53.50;;;;;;5059797;28;19924;-71
2022/08/14 12:30:26;;;;;;;;;;;25.40;53.60;;;;;;5061209;28;19927;-71
2022/08/14 12:32:55;;;;;;;;;;;25.40;53.50;;;;;;5060175;28;20023;-71
2022/08/14 12:35:22;;;;;;;;;;;25.40;53.40;;;;;;5078074;28;19920;-70
2022/08/14 12:37:49;;;;;;;;;;;25.40;53.30;;;;;;5060103;28;19927;-71
2022/08/14 12:40:16;;;;;;;;;;;25.40;53.20;;;;;;5059849;28;20027;-72
2022/08/14 12:42:43;;;;;;;;;;;25.40;53.30;;;;;;5057264;28;19961;-68
2022/08/14 12:45:11;;;;;;;;;;;25.40;53.30;;;;;;5056940;28;19921;-69
2022/08/14 12:47:40;;;;;;;;;;;25.50;53.40;;;;;;5057552;28;19950;-69
2022/08/14 12:50:07;;;;;;;;;;;25.40;53.30;;;;;;5058271;28;19921;-68
2022/08/14 12:52:35;;;;;;;;;;;25.40;53.30;;;;;;5057873;28;19920;-70
2022/08/14 12:55:02;;;;;;;;;;;25.40;53.30;;;;;;5076473;28;19921;-69
2022/08/14 12:57:36;;;;;;;;;;;25.40;53.30;;;;;;5060669;28;20014;-70
2022/08/14 13:00:07;;;;;;;;;;;25.40;53.40;;;;;;5080784;28;19927;-70
2022/08/14 13:02:36;;;;;;;;;;;25.50;53.50;;;;;;5087169;28;19976;-69
2022/08/14 13:05:05;;;;;;;;;;;25.50;53.60;;;;;;5067270;28;19920;-69
2022/08/14 13:07:32;;;;;;;;;;;25.50;53.70;;;;;;5075725;28;19971;-69
2022/08/14 13:09:58;;;;;;;;;;;25.50;53.70;;;;;;5057248;28;19920;-70
2022/08/14 13:12:27;;;;;;;;;;;25.50;53.90;;;;;;5057276;28;19959;-70
2022/08/14 13:14:54;;;;;;;;;;;25.50;54.00;;;;;;5056882;28;19924;-66
2022/08/14 13:17:21;;;;;;;;;;;25.50;54.00;;;;;;5059920;28;19931;-66
2022/08/14 13:19:48;;;;;;;;;;;25.50;54.10;;;;;;5059751;28;19927;-66
2022/08/14 13:22:17;;;;;;;;;;;25.50;54.10;;;;;;5077628;28;19920;-68
2022/08/14 13:24:44;;;;;;;;;;;25.60;54.10;;;;;;5079192;28;19967;-67
2022/08/14 13:27:11;;;;;;;;;;;25.50;54.00;;;;;;5063919;28;19932;-68
2022/08/14 13:29:39;;;;;;;;;;;25.50;54.00;;;;;;5063115;28;19921;-69
2022/08/14 13:32:08;;;;;;;;;;;25.50;53.90;;;;;;5080093;28;19974;-70
2022/08/14 13:34:35;;;;;;;;;;;25.60;53.90;;;;;;5062733;28;19920;-70
2022/08/14 13:37:05;;;;;;;;;;;25.50;53.90;;;;;;5062255;28;19920;-70
2022/08/14 13:39:34;;;;;;;;;;;25.60;53.90;;;;;;5062817;28;19970;-70
2022/08/14 13:42:06;;;;;;;;;;;25.60;53.90;;;;;;5062562;28;19928;-70
2022/08/14 13:44:33;;;;;;;;;;;25.60;53.80;;;;;;5062327;28;19921;-71
2022/08/14 13:47:03;;;;;;;;;;;25.60;53.80;;;;;;5061884;28;19927;-73
2022/08/14 13:49:29;;;;;;;;;;;25.60;54.40;;;;;;5074187;28;19950;-71
2022/08/14 13:51:57;;;;;;;;;;;25.60;53.80;;;;;;5065149;28;19970;-71
2022/08/14 13:54:24;;;;;;;;;;;25.60;53.80;;;;;;5062758;28;19953;-70
2022/08/14 13:56:52;;;;;;;;;;;25.60;53.80;;;;;;5079356;28;19932;-69
2022/08/14 13:59:19;;;;;;;;;;;25.60;53.80;;;;;;5080055;28;19955;-69
2022/08/14 14:01:46;;;;;;;;;;;25.60;53.80;;;;;;5063487;28;19920;-70
2022/08/14 14:04:14;;;;;;;;;;;25.60;53.80;;;;;;5079789;28;19921;-70
2022/08/14 14:06:40;;;;;;;;;;;25.60;53.80;;;;;;5060001;28;19920;-67
2022/08/14 14:09:09;;;;;;;;;;;25.60;53.80;;;;;;5058672;28;19921;-67
2022/08/14 14:11:35;;;;;;;;;;;25.60;53.80;;;;;;5059032;28;19952;-67
2022/08/14 14:14:03;;;;;;;;;;;25.60;53.70;;;;;;5076745;28;19924;-67
2022/08/14 14:16:31;;;;;;;;;;;25.60;53.70;;;;;;5077039;28;19924;-67
2022/08/14 14:18:59;;;;;;;;;;;25.60;53.60;;;;;;5060029;28;19943;-66
2022/08/14 14:21:27;;;;;;;;;;;25.60;53.60;;;;;;5078460;28;19935;-67
2022/08/14 14:23:53;;;;;;;;;;;25.60;53.60;;;;;;5058817;28;19928;-67
2022/08/14 14:26:20;;;;;;;;;;;25.60;53.60;;;;;;5058274;28;19924;-66
2022/08/14 14:28:49;;;;;;;;;;;25.60;53.50;;;;;;5058729;28;19964;-67
2022/08/14 14:31:20;;;;;;;;;;;25.60;53.50;;;;;;5059297;28;20338;-66
2022/08/14 14:33:49;;;;;;;;;;;25.60;53.50;;;;;;5058870;28;19921;-67
2022/08/14 14:36:19;;;;;;;;;;;25.50;53.40;;;;;;5077047;28;19928;-66